createdAt,value
2018-03-04T18:06:11.634Z,5.12
2018-03-04T18:08:42.924Z,9.45
2018-03-04T18:11:14.192Z,7.90
2018-03-04T18:45:58.363Z,15.88
2018-03-04T18:48:27.989Z,12.40
2018-03-04T18:50:56.902Z,15.35
2018-03-04T18:56:18.087Z,20.83
2018-03-04T18:58:46.910Z,11.80
2018-03-04T19:01:15.821Z,14.87
2018-03-04T19:03:45.870Z,16.98
2018-03-04T19:06:17.450Z,20.50
2018-03-04T19:08:47.636Z,19.77
2018-03-04T19:11:16.607Z,16.35
2018-03-04T19:13:45.466Z,16.77
2018-03-04T19:16:14.224Z,17.48
2018-03-04T19:18:42.993Z,11.38
2018-03-04T19:21:12.239Z,17.95
2018-03-04T19:23:41.055Z,16.25
2018-03-04T19:26:10.039Z,13.50
2018-03-04T19:28:39.275Z,17.00
2018-03-04T19:31:09.822Z,19.80
2018-03-04T19:33:38.814Z,16.75
2018-03-04T19:36:07.727Z,20.80
2018-03-04T19:38:36.618Z,17.70
2018-03-04T19:41:05.599Z,22.75
2018-03-04T19:43:34.924Z,20.30
2018-03-04T19:46:04.189Z,20.45
2018-03-04T19:48:33.499Z,20.45
2018-03-04T19:51:02.399Z,17.10
2018-03-04T19:53:31.357Z,21.02
2018-03-04T19:56:00.322Z,26.12
2018-03-04T19:58:29.309Z,24.35
2018-03-04T20:00:59.606Z,20.52
2018-03-04T20:03:29.423Z,20.37
2018-03-04T20:05:59.658Z,17.50
2018-03-04T20:08:28.480Z,17.65
2018-03-04T20:10:57.297Z,22.70
2018-03-04T20:13:26.099Z,19.83
2018-03-04T20:15:59.680Z,21.23
2018-03-04T20:18:28.571Z,21.98
2018-03-04T20:20:57.468Z,21.45
2018-03-04T20:23:26.266Z,24.85
2018-03-04T20:25:55.691Z,19.27
2018-03-04T20:28:24.524Z,26.92
2018-03-04T20:30:53.369Z,26.92
2018-03-04T20:33:22.431Z,30.27
2018-03-04T20:35:53.166Z,21.02
2018-03-04T20:38:22.032Z,24.08
2018-03-04T20:40:51.727Z,22.77
2018-03-04T20:43:20.829Z,23.95
2018-03-04T20:45:49.918Z,24.37
2018-03-04T20:48:20.210Z,20.17
2018-03-04T20:50:49.696Z,24.90
2018-03-04T20:53:19.276Z,26.75
2018-03-04T20:55:50.850Z,26.55
2018-03-04T20:58:21.287Z,18.42
2018-03-04T21:00:50.347Z,19.98
2018-03-04T21:03:19.279Z,19.55
2018-03-04T21:05:48.107Z,22.70
2018-03-04T21:08:16.947Z,22.08
2018-03-04T21:10:45.748Z,20.55
2018-03-04T21:13:14.713Z,23.40
2018-03-04T21:15:43.945Z,19.52
2018-03-04T21:18:13.499Z,21.80
2018-03-04T21:20:42.727Z,21.40
2018-03-04T21:23:12.238Z,19.42
2018-03-04T21:25:41.696Z,21.37
2018-03-04T21:28:11.353Z,23.75
2018-03-04T21:30:40.862Z,22.75
2018-03-04T21:33:10.445Z,23.45
2018-03-04T21:35:39.557Z,22.62
2018-03-04T21:38:08.609Z,22.25
2018-03-04T21:40:38.611Z,21.20
2018-03-04T21:43:07.887Z,18.65
2018-03-04T21:45:37.488Z,19.48
2018-03-04T21:48:06.744Z,16.55
2018-03-04T21:50:38.820Z,17.20
2018-03-04T21:53:08.252Z,20.70
2018-03-04T21:55:37.280Z,17.95
2018-03-04T21:58:08.865Z,19.85
2018-03-04T22:00:39.268Z,20.27
2018-03-04T22:03:08.718Z,16.67
2018-03-04T22:05:38.756Z,18.95
2018-03-04T22:08:08.148Z,20.52
2018-03-04T22:10:37.898Z,17.92
2018-03-04T22:13:07.884Z,23.25
2018-03-04T22:15:37.278Z,22.48
2018-03-04T22:18:06.080Z,15.15
2018-03-04T22:20:38.114Z,17.35
2018-03-04T22:23:07.561Z,13.32
2018-03-04T22:25:36.308Z,14.07
2018-03-04T22:28:05.827Z,14.38
2018-03-04T22:30:35.821Z,16.42
2018-03-04T22:33:05.521Z,14.68
2018-03-04T22:35:34.940Z,19.42
2018-03-04T22:38:04.559Z,16.25
2018-03-04T22:40:33.548Z,15.85
2018-03-04T22:43:02.479Z,15.70
2018-03-04T22:45:31.611Z,13.85
2018-03-04T22:48:00.529Z,10.80
2018-03-04T22:50:30.071Z,14.95
2018-03-04T22:52:58.914Z,13.62
2018-03-04T22:55:28.488Z,7.10
2018-03-04T22:57:57.512Z,9.85
2018-03-04T23:00:26.369Z,10.40
2018-03-04T23:02:55.280Z,10.25
2018-03-04T23:05:24.320Z,10.68
2018-03-04T23:07:53.133Z,12.98
2018-03-04T23:10:21.848Z,11.88
2018-03-04T23:12:50.732Z,7.55
2018-03-04T23:15:19.526Z,4.87
2018-03-04T23:17:55.167Z,2.55
2018-03-04T23:20:24.013Z,6.65
2018-03-04T23:22:53.052Z,10.23
2018-03-04T23:25:21.940Z,10.98
2018-03-04T23:27:50.792Z,6.78
2018-03-04T23:30:19.732Z,6.57
2018-03-04T23:32:48.559Z,8.38
2018-03-04T23:35:17.431Z,6.18
2018-03-04T23:37:46.666Z,5.85
2018-03-04T23:40:15.468Z,5.03
2018-03-04T23:42:44.245Z,5.53
2018-03-04T23:45:13.263Z,4.15
2018-03-04T23:47:46.948Z,4.82
2018-03-04T23:50:15.795Z,3.45
2018-03-04T23:52:44.628Z,4.10
2018-03-04T23:55:13.434Z,3.70
2018-03-04T23:57:47.784Z,3.58
